Accueil
METAR-TAF:

METAR-TAF

Aéroports :

Exeter, Angleterre

Aéroport international d'Exeter

latitude: 50-44N, longitude: 003-25W, altitude: 30 m

Observation

Le bulletin a été fait il y a 26 minutes, à 20:20 UTC
Vent 6 kt de ouest/sud-ouest, variant entre sud-ouest et ouest/nord-ouest
Température 11°C
Humidité 82%
Pression 1020 hPa
Visibilité 10 km ou plus
Nuages épars à une hauteur de 4000 ft

METAR: EGTE 222020Z 25006KT 230V290 9999 SCT040 11/08 Q1020

Heure: 21:46 (20:46 UTC)

Prévision

Le bulletin a été fait il y a 46 minutes, à 20:00 UTC
Prévision valable du 22 à 21 UTC au 23 à 02 UTC
Vent 8 kt de ouest/sud-ouest
Visibilité 10 km ou plus
Nuages épars à une hauteur de 3500 ft
Temporairement
du 22 à 23 UTC au 23 à 02 UTC
Visibilité: 8000 m
Nuages fragmentés à une hauteur de 1400 ft
pluie faible

TAF: EGTE 222000Z 2221/2302 24008KT 9999 SCT035 TEMPO 2223/2302 8000 -RA BKN014

Observations et prévisions météorologiques de plus de 4000 aéroports (messages METAR et TAF).

Les stations disponibles sont représentées par des disques jaunes et rouges sur la carte.

Passer la souris dessus pour voir le nom de la station.

Cliquer dessus pour voir les observations et prévisions météorologiques.

Pour changer de carte: cliquez sur les boutons verts avec une croix noire pour zoomer, sur le bouton vert avec un tiret pour effectuer un zoom arrière, ou sur les flèches vertes pour les cartes adjacentes.


METAR-TAF: